createdAt,value
2017-01-01T00:00:07.117Z,964.56
2017-01-01T00:01:07.686Z,964.55
2017-01-01T00:02:08.262Z,964.57
2017-01-01T00:03:07.875Z,964.51
2017-01-01T00:04:38.338Z,964.58
2017-01-01T00:05:07.950Z,964.57
2017-01-01T00:06:07.495Z,964.56
2017-01-01T00:07:08.023Z,964.52
2017-01-01T00:08:07.520Z,964.48
2017-01-01T00:09:08.087Z,964.51
2017-01-01T00:10:07.652Z,964.51
2017-01-01T00:11:08.240Z,964.51
2017-01-01T00:12:07.775Z,964.46
2017-01-01T00:13:07.276Z,964.50
2017-01-01T00:14:08.067Z,964.49
2017-01-01T00:15:07.567Z,964.51
2017-01-01T00:16:08.122Z,964.49
2017-01-01T00:17:07.682Z,964.47
2017-01-01T00:18:08.252Z,964.50
2017-01-01T00:19:07.885Z,964.47
2017-01-01T00:20:07.357Z,964.46
2017-01-01T00:21:07.810Z,964.42
2017-01-01T00:22:07.284Z,964.42
2017-01-01T00:23:07.822Z,964.41
2017-01-01T00:24:07.577Z,964.44
2017-01-01T00:25:08.033Z,964.44
2017-01-01T00:26:07.708Z,964.45
2017-01-01T00:27:08.268Z,964.37
2017-01-01T00:28:07.735Z,964.42
2017-01-01T00:29:08.346Z,964.41
2017-01-01T00:30:07.915Z,964.41
2017-01-01T00:31:07.578Z,964.41
2017-01-01T00:32:08.124Z,964.39
2017-01-01T00:33:07.744Z,964.39
2017-01-01T00:35:38.009Z,964.36
2017-01-01T00:36:07.683Z,964.41
2017-01-01T00:37:08.258Z,964.36
2017-01-01T00:38:07.816Z,964.29
2017-01-01T00:39:07.483Z,964.35
2017-01-01T00:40:08.091Z,964.35
2017-01-01T00:41:07.637Z,964.34
2017-01-01T00:42:08.222Z,964.35
2017-01-01T00:43:08.065Z,964.38
2017-01-01T00:44:07.539Z,964.36
2017-01-01T00:45:08.121Z,964.31
2017-01-01T00:46:07.692Z,964.30
2017-01-01T00:47:08.254Z,964.33
2017-01-01T00:48:08.044Z,964.31
2017-01-01T00:49:07.603Z,964.35
2017-01-01T00:50:08.172Z,964.32
2017-01-01T00:51:07.671Z,964.31
2017-01-01T00:52:08.236Z,964.35
2017-01-01T00:53:07.717Z,964.28
2017-01-01T00:54:08.193Z,964.29
2017-01-01T00:55:07.776Z,964.26
2017-01-01T00:56:07.619Z,964.24
2017-01-01T00:57:08.155Z,964.28
2017-01-01T00:58:07.637Z,964.26
2017-01-01T00:59:08.176Z,964.27
2017-01-01T01:00:08.008Z,964.25
2017-01-01T01:01:07.880Z,964.24
2017-01-01T01:02:07.569Z,964.27
2017-01-01T01:03:08.226Z,964.20
2017-01-01T01:05:17.881Z,964.17
2017-01-01T01:06:07.541Z,964.18
2017-01-01T01:07:08.064Z,964.20
2017-01-01T01:08:07.369Z,964.16
2017-01-01T01:09:07.846Z,964.21
2017-01-01T01:10:07.410Z,964.21
2017-01-01T01:11:07.942Z,964.13
2017-01-01T01:12:07.769Z,964.12
2017-01-01T01:13:07.290Z,964.09
2017-01-01T01:14:07.897Z,964.08
2017-01-01T01:15:07.423Z,964.06
2017-01-01T01:16:08.220Z,964.03
2017-01-01T01:17:07.875Z,964.09
2017-01-01T01:18:07.451Z,964.08
2017-01-01T01:19:08.013Z,964.01
2017-01-01T01:20:07.617Z,964.07
2017-01-01T01:21:08.321Z,964.01
2017-01-01T01:22:07.917Z,964.03
2017-01-01T01:23:07.778Z,964.02
2017-01-01T01:24:07.468Z,964.01
2017-01-01T01:25:08.018Z,963.97
2017-01-01T01:26:07.672Z,963.96
2017-01-01T01:27:08.207Z,963.94
2017-01-01T01:28:07.750Z,963.94
2017-01-01T01:29:07.429Z,963.94
2017-01-01T01:30:07.978Z,963.96
2017-01-01T01:31:07.488Z,963.93
2017-01-01T01:32:08.023Z,963.94
2017-01-01T01:33:07.698Z,963.98
2017-01-01T01:34:08.188Z,963.93
2017-01-01T01:35:07.708Z,963.95
2017-01-01T01:36:08.275Z,963.87
2017-01-01T01:37:07.756Z,963.87
2017-01-01T01:38:07.563Z,963.86
2017-01-01T01:39:08.015Z,963.86
2017-01-01T01:40:07.533Z,963.85
2017-01-01T01:41:08.302Z,963.84
2017-01-01T01:42:07.885Z,963.82
2017-01-01T01:43:07.638Z,963.84
2017-01-01T01:44:08.151Z,963.80
2017-01-01T01:45:07.708Z,963.81
2017-01-01T01:46:08.195Z,963.81
2017-01-01T01:47:07.771Z,963.81
2017-01-01T01:48:07.466Z,963.77
2017-01-01T01:49:08.034Z,963.81
2017-01-01T01:50:07.651Z,963.79
2017-01-01T01:51:08.224Z,963.75
2017-01-01T01:52:07.716Z,963.75
2017-01-01T01:53:08.221Z,963.73
2017-01-01T01:54:07.729Z,963.76
2017-01-01T01:55:08.342Z,963.77
2017-01-01T01:56:08.062Z,963.77
2017-01-01T01:57:07.596Z,963.79
2017-01-01T01:58:08.194Z,963.80
2017-01-01T01:59:07.744Z,963.79
2017-01-01T02:00:07.366Z,963.77
2017-01-01T02:01:07.916Z,963.79
2017-01-01T02:02:07.733Z,963.75
2017-01-01T02:03:07.506Z,963.75
2017-01-01T02:04:17.941Z,963.69
2017-01-01T02:05:07.748Z,963.74
2017-01-01T02:06:07.452Z,963.67
2017-01-01T02:07:08.042Z,963.72
2017-01-01T02:08:07.527Z,963.70
2017-01-01T02:09:08.047Z,963.63
2017-01-01T02:10:07.600Z,963.65
2017-01-01T02:11:08.186Z,963.65
2017-01-01T02:12:07.962Z,963.64
2017-01-01T02:13:07.476Z,963.62
2017-01-01T02:14:08.016Z,963.61
2017-01-01T02:15:07.882Z,963.56
2017-01-01T02:16:07.766Z,963.55
2017-01-01T02:17:07.429Z,963.52
2017-01-01T02:18:08.144Z,963.55
2017-01-01T02:19:07.719Z,963.51
2017-01-01T02:20:07.682Z,963.46
2017-01-01T02:21:08.175Z,963.47
2017-01-01T02:22:07.780Z,963.49
2017-01-01T02:23:07.463Z,963.52
2017-01-01T02:24:07.938Z,963.52
2017-01-01T02:25:07.821Z,963.45
2017-01-01T02:26:07.752Z,963.48
2017-01-01T02:27:07.344Z,963.44
2017-01-01T02:28:08.112Z,963.46
2017-01-01T02:29:07.599Z,963.42
2017-01-01T02:30:08.228Z,963.40
2017-01-01T02:31:07.651Z,963.37
2017-01-01T02:32:08.245Z,963.32
2017-01-01T02:33:07.703Z,963.28
2017-01-01T02:34:07.767Z,963.29
2017-01-01T02:35:07.521Z,963.25
2017-01-01T02:36:08.056Z,963.25
2017-01-01T02:37:07.772Z,963.31
2017-01-01T02:38:07.344Z,963.28
2017-01-01T02:39:07.790Z,963.29
2017-01-01T02:40:07.796Z,963.27
2017-01-01T02:41:07.753Z,963.25
2017-01-01T02:42:07.462Z,963.23
2017-01-01T02:43:08.032Z,963.27
2017-01-01T02:44:07.441Z,963.21
2017-01-01T02:45:07.550Z,963.18
2017-01-01T02:46:08.128Z,963.20
2017-01-01T02:47:07.814Z,963.16
2017-01-01T02:48:07.336Z,963.13
2017-01-01T02:49:07.885Z,963.11
2017-01-01T02:50:07.841Z,963.09
2017-01-01T02:51:07.575Z,963.07
2017-01-01T02:52:08.169Z,963.03
2017-01-01T02:53:07.747Z,963.04
2017-01-01T02:54:07.458Z,963.02
2017-01-01T02:55:07.973Z,963.08
2017-01-01T02:56:07.528Z,963.04
2017-01-01T02:57:08.129Z,963.05
2017-01-01T02:58:07.837Z,963.00
2017-01-01T02:59:07.349Z,963.00
2017-01-01T03:00:07.916Z,963.00
2017-01-01T03:01:07.460Z,962.98
2017-01-01T03:02:08.067Z,962.91
2017-01-01T03:03:07.648Z,962.93
2017-01-01T03:05:17.245Z,962.91
2017-01-01T03:06:07.779Z,962.93
2017-01-01T03:07:07.694Z,962.90
2017-01-01T03:08:08.229Z,962.90
2017-01-01T03:09:07.720Z,962.94
2017-01-01T03:10:08.248Z,962.89
2017-01-01T03:11:07.853Z,962.83
2017-01-01T03:12:07.589Z,962.86
2017-01-01T03:13:07.414Z,962.82
2017-01-01T03:14:08.012Z,962.82
2017-01-01T03:15:07.719Z,962.78
2017-01-01T03:16:08.306Z,962.76
2017-01-01T03:17:08.011Z,962.73
2017-01-01T03:18:07.473Z,962.75
2017-01-01T03:19:08.300Z,962.75
2017-01-01T03:20:07.402Z,962.71
2017-01-01T03:21:07.882Z,962.71
2017-01-01T03:22:07.399Z,962.71
2017-01-01T03:23:08.002Z,962.67
2017-01-01T03:24:07.492Z,962.64
2017-01-01T03:25:08.040Z,962.60
2017-01-01T03:26:07.512Z,962.60
2017-01-01T03:27:07.676Z,962.57
2017-01-01T03:28:08.244Z,962.61
2017-01-01T03:29:07.748Z,962.55
2017-01-01T03:30:07.459Z,962.55
2017-01-01T03:31:08.028Z,962.52
2017-01-01T03:32:07.605Z,962.55
2017-01-01T03:33:08.309Z,962.48
2017-01-01T03:34:08.043Z,962.48
2017-01-01T03:35:07.600Z,962.48
2017-01-01T03:36:08.105Z,962.49
2017-01-01T03:37:07.662Z,962.42
2017-01-01T03:38:08.345Z,962.45
2017-01-01T03:39:07.881Z,962.43
2017-01-01T03:40:07.423Z,962.42
2017-01-01T03:41:08.350Z,962.41
2017-01-01T03:42:07.948Z,962.37
2017-01-01T03:43:07.883Z,962.38
2017-01-01T03:44:07.880Z,962.36
2017-01-01T03:45:07.402Z,962.35
2017-01-01T03:46:07.982Z,962.34
2017-01-01T03:47:07.736Z,962.33
2017-01-01T03:48:07.412Z,962.36
2017-01-01T03:49:07.913Z,962.33
2017-01-01T03:50:07.447Z,962.33
2017-01-01T03:51:07.861Z,962.32
2017-01-01T03:52:07.517Z,962.33
2017-01-01T03:53:08.055Z,962.27
2017-01-01T03:54:07.617Z,962.27
2017-01-01T03:55:08.158Z,962.27
2017-01-01T03:56:07.817Z,962.24
2017-01-01T03:57:07.820Z,962.22
2017-01-01T03:58:07.502Z,962.19
2017-01-01T03:59:08.102Z,962.13
2017-01-01T04:00:07.594Z,962.18
2017-01-01T04:01:08.170Z,962.11
2017-01-01T04:02:07.729Z,962.12
2017-01-01T04:03:08.405Z,962.15
2017-01-01T04:04:17.826Z,962.11
2017-01-01T04:05:07.370Z,962.10
2017-01-01T04:06:07.920Z,962.15
2017-01-01T04:07:07.626Z,962.12
2017-01-01T04:08:08.089Z,962.08
2017-01-01T04:09:07.648Z,962.11
2017-01-01T04:10:08.233Z,962.02
2017-01-01T04:11:07.790Z,962.04
2017-01-01T04:12:07.548Z,961.98
2017-01-01T04:13:08.110Z,961.99
2017-01-01T04:14:07.679Z,962.02
2017-01-01T04:15:07.874Z,961.93
2017-01-01T04:16:07.515Z,961.98
2017-01-01T04:17:08.251Z,961.97
2017-01-01T04:18:07.856Z,962.02
2017-01-01T04:19:07.546Z,961.92
2017-01-01T04:20:08.129Z,961.93
2017-01-01T04:21:07.698Z,961.91
2017-01-01T04:22:08.310Z,961.91
2017-01-01T04:23:07.955Z,961.96
2017-01-01T04:24:07.579Z,961.87
2017-01-01T04:25:08.063Z,961.85
2017-01-01T04:26:07.617Z,961.85
2017-01-01T04:27:08.238Z,961.90
2017-01-01T04:28:07.790Z,961.82
2017-01-01T04:29:07.420Z,961.79
2017-01-01T04:30:07.997Z,961.84
2017-01-01T04:31:07.581Z,961.82
2017-01-01T04:32:08.106Z,961.81
2017-01-01T04:33:07.821Z,961.80
2017-01-01T04:34:08.298Z,961.77
2017-01-01T04:35:07.905Z,961.85
2017-01-01T04:36:07.483Z,961.81
2017-01-01T04:37:08.285Z,961.75
2017-01-01T04:38:07.847Z,961.79
2017-01-01T04:39:07.495Z,961.79
2017-01-01T04:40:08.060Z,961.78
2017-01-01T04:41:07.864Z,961.74
2017-01-01T04:42:07.821Z,961.81
2017-01-01T04:43:07.852Z,961.81
2017-01-01T04:44:07.602Z,961.79
2017-01-01T04:45:08.155Z,961.87
2017-01-01T04:46:07.723Z,961.84
2017-01-01T04:47:08.322Z,961.80
2017-01-01T04:48:07.896Z,961.83
2017-01-01T04:49:07.454Z,961.82
2017-01-01T04:50:07.990Z,961.82
2017-01-01T04:51:07.742Z,961.83
2017-01-01T04:52:07.423Z,961.82
2017-01-01T04:53:08.339Z,961.86
2017-01-01T04:54:08.072Z,961.85
2017-01-01T04:55:07.622Z,961.88
2017-01-01T04:56:08.160Z,961.86
2017-01-01T04:57:07.734Z,961.86
2017-01-01T04:58:08.350Z,961.86
2017-01-01T04:59:07.820Z,961.90
2017-01-01T05:00:07.605Z,961.77
2017-01-01T05:01:08.132Z,961.82
2017-01-01T05:02:07.708Z,961.79
2017-01-01T05:03:08.383Z,961.75
2017-01-01T05:04:07.893Z,961.78
2017-01-01T05:05:07.621Z,961.80
2017-01-01T05:06:08.243Z,961.76
2017-01-01T05:07:07.812Z,961.81
2017-01-01T05:08:07.340Z,961.77
2017-01-01T05:09:07.865Z,961.79
2017-01-01T05:10:07.568Z,961.75
2017-01-01T05:11:08.144Z,961.77
2017-01-01T05:12:07.776Z,961.80
2017-01-01T05:13:07.657Z,961.76
2017-01-01T05:14:08.253Z,961.78
2017-01-01T05:15:07.716Z,961.72
2017-01-01T05:16:08.321Z,961.73
2017-01-01T05:17:07.921Z,961.75
2017-01-01T05:18:07.698Z,961.78
2017-01-01T05:19:08.239Z,961.82
2017-01-01T05:20:08.084Z,961.83
2017-01-01T05:21:07.744Z,961.81
2017-01-01T05:22:08.257Z,961.80
2017-01-01T05:23:07.760Z,961.78
2017-01-01T05:24:07.428Z,961.78
2017-01-01T05:25:10.784Z,961.70
2017-01-01T05:26:07.733Z,961.73
2017-01-01T05:27:08.276Z,961.69
2017-01-01T05:28:08.337Z,961.70
2017-01-01T05:29:07.920Z,961.70
2017-01-01T05:30:07.609Z,961.67
2017-01-01T05:31:08.145Z,961.67
2017-01-01T05:32:07.601Z,961.71
2017-01-01T05:33:08.208Z,961.67
2017-01-01T05:34:07.791Z,961.69
2017-01-01T05:35:07.583Z,961.67
2017-01-01T05:36:07.651Z,961.69
2017-01-01T05:37:08.185Z,961.68
2017-01-01T05:38:08.135Z,961.69
2017-01-01T05:39:07.795Z,961.68
2017-01-01T05:40:07.611Z,961.67
2017-01-01T05:41:08.181Z,961.67
2017-01-01T05:42:07.805Z,961.67
2017-01-01T05:43:07.713Z,961.72
2017-01-01T05:44:08.129Z,961.68
2017-01-01T05:45:07.856Z,961.67
2017-01-01T05:46:07.691Z,961.68
2017-01-01T05:47:10.010Z,961.66
2017-01-01T05:48:08.137Z,961.69
2017-01-01T05:49:07.662Z,961.71
2017-01-01T05:50:08.232Z,961.62
2017-01-01T05:51:07.767Z,961.68
2017-01-01T05:52:07.675Z,961.59
2017-01-01T05:53:08.295Z,961.61
2017-01-01T05:54:07.757Z,961.66
2017-01-01T05:55:08.347Z,961.61
2017-01-01T05:56:07.875Z,961.63
2017-01-01T05:57:07.693Z,961.58
2017-01-01T05:58:08.285Z,961.59
2017-01-01T05:59:08.087Z,961.55
2017-01-01T06:00:07.536Z,961.53
2017-01-01T06:01:08.084Z,961.56
2017-01-01T06:02:07.728Z,961.55
2017-01-01T06:03:08.480Z,961.55
2017-01-01T06:04:08.045Z,961.57
2017-01-01T06:05:07.800Z,961.60
2017-01-01T06:06:07.638Z,961.51
2017-01-01T06:07:08.149Z,961.50
2017-01-01T06:08:07.786Z,961.51
2017-01-01T06:09:07.626Z,961.49
2017-01-01T06:10:08.128Z,961.50
2017-01-01T06:11:07.955Z,961.49
2017-01-01T06:12:07.689Z,961.47
2017-01-01T06:13:08.206Z,961.51
2017-01-01T06:14:07.701Z,961.49
2017-01-01T06:15:08.307Z,961.46
2017-01-01T06:16:07.790Z,961.49
2017-01-01T06:17:07.688Z,961.47
2017-01-01T06:18:08.150Z,961.46
2017-01-01T06:19:07.838Z,961.41
2017-01-01T06:20:07.709Z,961.42
2017-01-01T06:21:08.320Z,961.45
2017-01-01T06:22:07.897Z,961.43
2017-01-01T06:23:07.369Z,961.40
2017-01-01T06:24:08.094Z,961.38
2017-01-01T06:25:07.602Z,961.37
2017-01-01T06:26:08.139Z,961.34
2017-01-01T06:27:07.864Z,961.32
2017-01-01T06:28:07.566Z,961.31
2017-01-01T06:29:08.101Z,961.34
2017-01-01T06:30:07.863Z,961.33
2017-01-01T06:31:07.520Z,961.31
2017-01-01T06:32:08.074Z,961.33
2017-01-01T06:33:08.017Z,961.33
2017-01-01T06:34:07.582Z,961.36
2017-01-01T06:35:08.083Z,961.33
2017-01-01T06:36:07.543Z,961.38
2017-01-01T06:37:08.129Z,961.39
2017-01-01T06:38:07.761Z,961.42
2017-01-01T06:39:07.570Z,961.39
2017-01-01T06:40:08.141Z,961.43
2017-01-01T06:41:07.752Z,961.47
2017-01-01T06:42:08.402Z,961.40
2017-01-01T06:43:08.142Z,961.40
2017-01-01T06:44:07.631Z,961.43
2017-01-01T06:45:08.155Z,961.41
2017-01-01T06:46:07.718Z,961.38
2017-01-01T06:47:08.279Z,961.42
2017-01-01T06:48:07.888Z,961.35
2017-01-01T06:49:07.712Z,961.35
2017-01-01T06:50:08.343Z,961.37
2017-01-01T06:51:07.880Z,961.38
2017-01-01T06:52:07.757Z,961.32
2017-01-01T06:53:08.321Z,961.34
2017-01-01T06:54:08.024Z,961.28
2017-01-01T06:55:07.841Z,961.30
2017-01-01T06:56:07.732Z,961.29
2017-01-01T06:57:08.311Z,961.24
2017-01-01T06:58:07.852Z,961.26
2017-01-01T06:59:07.603Z,961.28
2017-01-01T07:00:08.184Z,961.26
2017-01-01T07:01:07.725Z,961.24
2017-01-01T07:02:08.300Z,961.21
2017-01-01T07:03:08.201Z,961.17
2017-01-01T07:04:07.947Z,961.12
2017-01-01T07:05:07.781Z,961.13
2017-01-01T07:06:07.640Z,961.13
2017-01-01T07:07:08.204Z,961.13
2017-01-01T07:08:08.019Z,961.15
2017-01-01T07:09:07.763Z,961.17
2017-01-01T07:10:07.722Z,961.14
2017-01-01T07:11:08.408Z,961.17
2017-01-01T07:12:07.895Z,961.14
2017-01-01T07:13:08.150Z,961.13
2017-01-01T07:14:07.861Z,961.20
2017-01-01T07:15:07.794Z,961.19
2017-01-01T07:16:07.741Z,961.13
2017-01-01T07:17:08.406Z,961.17
2017-01-01T07:18:07.904Z,961.13
2017-01-01T07:19:07.842Z,961.18
2017-01-01T07:20:07.759Z,961.14
2017-01-01T07:21:08.302Z,961.10
2017-01-01T07:22:07.914Z,961.08
2017-01-01T07:23:07.716Z,961.07
2017-01-01T07:24:08.244Z,961.12
2017-01-01T07:25:07.908Z,961.12
2017-01-01T07:26:07.918Z,961.07
2017-01-01T07:27:07.777Z,961.04
2017-01-01T07:28:07.683Z,961.04
2017-01-01T07:29:08.286Z,961.02
2017-01-01T07:30:08.183Z,961.07
2017-01-01T07:31:07.984Z,961.05
2017-01-01T07:32:07.662Z,961.09
2017-01-01T07:33:08.303Z,961.10
2017-01-01T07:34:07.962Z,961.10
2017-01-01T07:35:07.825Z,961.10
2017-01-01T07:36:07.753Z,961.03
2017-01-01T07:37:08.570Z,961.02
2017-01-01T07:38:08.107Z,961.02
2017-01-01T07:39:07.563Z,961.01
2017-01-01T07:40:08.130Z,961.04
2017-01-01T07:41:07.948Z,961.06
2017-01-01T07:42:07.765Z,961.04
2017-01-01T07:43:07.786Z,961.02
2017-01-01T07:44:07.652Z,961.06
2017-01-01T07:45:08.165Z,961.13
2017-01-01T07:46:07.817Z,961.11
2017-01-01T07:47:07.651Z,961.08
2017-01-01T07:48:08.190Z,961.09
2017-01-01T07:49:07.902Z,961.08
2017-01-01T07:50:07.705Z,961.07
2017-01-01T07:51:08.298Z,961.05
2017-01-01T07:52:07.891Z,960.98
2017-01-01T07:53:07.710Z,961.08
2017-01-01T07:54:08.226Z,961.01
2017-01-01T07:55:08.030Z,961.06
2017-01-01T07:56:07.823Z,960.99
2017-01-01T07:57:07.566Z,961.03
2017-01-01T07:58:08.286Z,961.02
2017-01-01T07:59:08.023Z,961.03
2017-01-01T08:00:07.924Z,961.00
2017-01-01T08:01:07.720Z,961.02
2017-01-01T08:02:08.261Z,961.01
2017-01-01T08:03:07.986Z,961.02
2017-01-01T08:05:17.749Z,961.04
2017-01-01T08:06:08.432Z,961.04
2017-01-01T08:07:07.968Z,961.03
2017-01-01T08:08:07.702Z,961.03
2017-01-01T08:09:08.294Z,961.01
2017-01-01T08:10:07.906Z,961.00
2017-01-01T08:11:07.794Z,961.01
2017-01-01T08:12:07.692Z,961.01
2017-01-01T08:13:08.239Z,961.01
2017-01-01T08:14:07.940Z,961.02
2017-01-01T08:15:07.904Z,960.97
2017-01-01T08:16:07.622Z,960.97
2017-01-01T08:17:08.273Z,960.95
2017-01-01T08:18:08.092Z,960.96
2017-01-01T08:19:07.945Z,960.96
2017-01-01T08:20:07.678Z,960.96
2017-01-01T08:21:08.194Z,960.98
2017-01-01T08:22:08.205Z,960.96
2017-01-01T08:23:08.144Z,960.99
2017-01-01T08:25:17.851Z,961.01
2017-01-01T08:26:07.878Z,960.97
2017-01-01T08:27:07.640Z,960.95
2017-01-01T08:28:08.312Z,961.01
2017-01-01T08:29:07.972Z,960.95
2017-01-01T08:30:07.964Z,960.93
2017-01-01T08:31:07.685Z,960.93
2017-01-01T08:32:08.283Z,960.90
2017-01-01T08:33:07.918Z,960.88
2017-01-01T08:35:07.991Z,960.90
2017-01-01T08:36:07.897Z,960.80
2017-01-01T08:37:07.394Z,960.81
2017-01-01T08:38:07.853Z,960.74
2017-01-01T08:39:07.425Z,960.78
2017-01-01T08:40:07.961Z,960.73
2017-01-01T08:41:07.746Z,960.75
2017-01-01T08:42:08.237Z,960.73
2017-01-01T08:43:07.867Z,960.73
2017-01-01T08:44:07.601Z,960.78
2017-01-01T08:45:08.148Z,960.73
2017-01-01T08:46:07.878Z,960.78
2017-01-01T08:47:07.776Z,960.75
2017-01-01T08:48:07.613Z,960.77
2017-01-01T08:49:08.096Z,960.76
2017-01-01T08:50:07.803Z,960.77
2017-01-01T08:51:07.654Z,960.78
2017-01-01T08:52:08.515Z,960.76
2017-01-01T08:53:07.946Z,960.71
2017-01-01T08:54:07.627Z,960.79
2017-01-01T08:55:08.124Z,960.76
2017-01-01T08:56:07.788Z,960.77
2017-01-01T08:57:07.587Z,960.76
2017-01-01T08:58:08.057Z,960.79
2017-01-01T08:59:07.573Z,960.76
2017-01-01T09:00:08.195Z,960.76
2017-01-01T09:01:07.866Z,960.80
2017-01-01T09:02:07.512Z,960.75
2017-01-01T09:03:08.189Z,960.83
2017-01-01T09:04:17.653Z,960.79
2017-01-01T09:05:08.175Z,960.79
2017-01-01T09:06:07.898Z,960.79
2017-01-01T09:07:07.663Z,960.82
2017-01-01T09:08:08.232Z,960.80
2017-01-01T09:09:07.857Z,960.80
2017-01-01T09:10:07.708Z,960.76
2017-01-01T09:11:08.223Z,960.77
2017-01-01T09:12:08.042Z,960.72
2017-01-01T09:13:07.891Z,960.73
2017-01-01T09:14:07.471Z,960.74
2017-01-01T09:15:07.985Z,960.73
2017-01-01T09:16:07.885Z,960.65
2017-01-01T09:17:07.864Z,960.71
2017-01-01T09:18:07.666Z,960.67
2017-01-01T09:19:08.213Z,960.68
2017-01-01T09:20:07.836Z,960.71
2017-01-01T09:21:07.783Z,960.69
2017-01-01T09:22:07.577Z,960.66
2017-01-01T09:23:08.495Z,960.66
2017-01-01T09:24:08.070Z,960.63
2017-01-01T09:25:07.710Z,960.61
2017-01-01T09:26:08.260Z,960.57
2017-01-01T09:27:07.846Z,960.54
2017-01-01T09:28:07.665Z,960.49
2017-01-01T09:29:08.157Z,960.54
2017-01-01T09:30:07.660Z,960.54
2017-01-01T09:31:08.244Z,960.53
2017-01-01T09:32:07.822Z,960.55
2017-01-01T09:33:07.791Z,960.51
2017-01-01T09:34:17.298Z,960.52
2017-01-01T09:35:07.841Z,960.46
2017-01-01T09:36:07.612Z,960.48
2017-01-01T09:37:08.154Z,960.48
2017-01-01T09:38:07.839Z,960.40
2017-01-01T09:39:07.706Z,960.40
2017-01-01T09:40:08.244Z,960.40
2017-01-01T09:41:07.953Z,960.37
2017-01-01T09:42:07.917Z,960.37
2017-01-01T09:43:07.734Z,960.36
2017-01-01T09:44:08.376Z,960.32
2017-01-01T09:45:07.937Z,960.36
2017-01-01T09:46:07.390Z,960.31
2017-01-01T09:47:08.154Z,960.28
2017-01-01T09:48:08.033Z,960.31
2017-01-01T09:49:07.847Z,960.30
2017-01-01T09:50:07.514Z,960.29
2017-01-01T09:51:08.305Z,960.26
2017-01-01T09:52:07.778Z,960.23
2017-01-01T09:53:07.580Z,960.18
2017-01-01T09:54:08.203Z,960.15
2017-01-01T09:55:08.024Z,960.12
2017-01-01T09:56:07.844Z,960.16
2017-01-01T09:57:07.679Z,960.12
2017-01-01T09:58:08.204Z,960.19
2017-01-01T09:59:07.847Z,960.14
2017-01-01T10:00:07.657Z,960.08
2017-01-01T10:01:08.496Z,960.09
2017-01-01T10:02:08.418Z,960.08
2017-01-01T10:03:08.061Z,960.09
2017-01-01T10:04:07.819Z,960.10
2017-01-01T10:05:07.684Z,960.05
2017-01-01T10:06:08.202Z,960.05
2017-01-01T10:07:07.777Z,960.08
2017-01-01T10:08:07.543Z,960.06
2017-01-01T10:09:08.063Z,960.05
2017-01-01T10:10:07.644Z,960.06
2017-01-01T10:11:08.270Z,960.07
2017-01-01T10:12:08.145Z,960.04
2017-01-01T10:13:07.936Z,959.97
2017-01-01T10:14:07.825Z,959.97
2017-01-01T10:15:07.633Z,959.94
2017-01-01T10:16:08.519Z,960.00
2017-01-01T10:17:08.244Z,959.90
2017-01-01T10:18:07.947Z,959.91
2017-01-01T10:19:07.689Z,959.93
2017-01-01T10:20:08.229Z,959.88
2017-01-01T10:21:07.921Z,959.84
2017-01-01T10:22:07.694Z,959.82
2017-01-01T10:23:08.252Z,959.87
2017-01-01T10:24:07.835Z,959.85
2017-01-01T10:25:07.674Z,959.80
2017-01-01T10:26:08.209Z,959.78
2017-01-01T10:27:07.872Z,959.79
2017-01-01T10:28:07.419Z,959.79
2017-01-01T10:29:07.960Z,959.78
2017-01-01T10:30:07.749Z,959.77
2017-01-01T10:31:07.880Z,959.74
2017-01-01T10:32:07.739Z,959.73
2017-01-01T10:33:08.382Z,959.67
2017-01-01T10:34:07.780Z,959.63
2017-01-01T10:35:07.260Z,959.66
2017-01-01T10:36:07.848Z,959.63
2017-01-01T10:37:07.749Z,959.58
2017-01-01T10:38:07.690Z,959.52
2017-01-01T10:39:08.287Z,959.50
2017-01-01T10:40:07.851Z,959.48
2017-01-01T10:41:07.756Z,959.46
2017-01-01T10:42:07.646Z,959.47
2017-01-01T10:43:08.180Z,959.48
2017-01-01T10:44:07.809Z,959.46
2017-01-01T10:45:07.557Z,959.42
2017-01-01T10:46:07.997Z,959.45
2017-01-01T10:47:07.754Z,959.41
2017-01-01T10:48:07.607Z,959.39
2017-01-01T10:49:08.142Z,959.41
2017-01-01T10:50:07.858Z,959.39
2017-01-01T10:51:07.601Z,959.39
2017-01-01T10:52:08.132Z,959.37
2017-01-01T10:53:07.824Z,959.31
2017-01-01T10:54:07.932Z,959.32
2017-01-01T10:55:17.440Z,959.26
2017-01-01T10:56:08.231Z,959.31
2017-01-01T10:57:13.418Z,959.25
2017-01-01T10:58:08.340Z,959.31
2017-01-01T10:59:08.158Z,959.26
2017-01-01T11:00:08.055Z,959.31
2017-01-01T11:01:07.860Z,959.23
2017-01-01T11:02:07.689Z,959.25
2017-01-01T11:03:27.098Z,959.22
2017-01-01T11:04:08.559Z,959.23
2017-01-01T11:05:08.988Z,959.21
2017-01-01T11:06:29.155Z,959.22
2017-01-01T11:07:07.826Z,959.16
2017-01-01T11:08:08.304Z,959.20
2017-01-01T11:09:08.769Z,959.19
2017-01-01T11:10:07.680Z,959.13
2017-01-01T11:11:09.105Z,959.18
2017-01-01T11:12:08.006Z,959.13
2017-01-01T11:13:08.455Z,959.09
2017-01-01T11:14:07.972Z,959.09
2017-01-01T11:15:08.469Z,959.08
2017-01-01T11:16:08.914Z,959.11
2017-01-01T11:17:08.516Z,959.03
2017-01-01T11:18:08.161Z,959.08
2017-01-01T11:19:08.648Z,959.09
2017-01-01T11:20:09.025Z,959.01
2017-01-01T11:21:08.053Z,959.05
2017-01-01T11:22:08.572Z,959.00
2017-01-01T11:23:09.682Z,958.95
2017-01-01T11:24:18.025Z,958.94
2017-01-01T11:25:08.123Z,958.95
2017-01-01T11:26:07.935Z,958.91
2017-01-01T11:27:07.814Z,958.90
2017-01-01T11:28:07.736Z,958.88
2017-01-01T11:29:08.333Z,958.89
2017-01-01T11:30:07.862Z,958.87
2017-01-01T11:31:07.611Z,958.90
2017-01-01T11:32:08.139Z,958.86
2017-01-01T11:33:07.921Z,958.78
2017-01-01T11:34:08.009Z,958.77
2017-01-01T11:35:07.737Z,958.75
2017-01-01T11:36:08.254Z,958.78
2017-01-01T11:37:07.954Z,958.74
2017-01-01T11:38:07.909Z,958.71
2017-01-01T11:39:07.762Z,958.70
2017-01-01T11:40:07.700Z,958.69
2017-01-01T11:41:08.330Z,958.71
2017-01-01T11:42:07.905Z,958.68
2017-01-01T11:43:07.742Z,958.66
2017-01-01T11:44:08.389Z,958.61
2017-01-01T11:45:07.877Z,958.61
2017-01-01T11:46:07.654Z,958.63
2017-01-01T11:47:08.195Z,958.60
2017-01-01T11:48:07.827Z,958.62
2017-01-01T11:49:07.726Z,958.56
2017-01-01T11:50:07.707Z,958.57
2017-01-01T11:51:08.313Z,958.56
2017-01-01T11:52:08.007Z,958.56
2017-01-01T11:53:07.932Z,958.53
2017-01-01T11:54:07.840Z,958.52
2017-01-01T11:55:08.000Z,958.51
2017-01-01T11:56:08.021Z,958.48
2017-01-01T11:57:07.865Z,958.53
2017-01-01T11:58:17.565Z,958.58
2017-01-01T11:59:08.386Z,958.54
2017-01-01T12:00:08.240Z,958.51
2017-01-01T12:01:07.923Z,958.54
2017-01-01T12:02:07.632Z,958.52
2017-01-01T12:03:08.168Z,958.53
2017-01-01T12:04:08.219Z,958.57
2017-01-01T12:05:08.015Z,958.51
2017-01-01T12:06:08.204Z,958.49
2017-01-01T12:07:07.657Z,958.54
2017-01-01T12:08:08.163Z,958.48
2017-01-01T12:09:07.867Z,958.48
2017-01-01T12:10:07.784Z,958.47
2017-01-01T12:11:07.534Z,958.48
2017-01-01T12:12:08.181Z,958.44
2017-01-01T12:13:08.081Z,958.49
2017-01-01T12:14:08.593Z,958.44
2017-01-01T12:15:08.144Z,958.38
2017-01-01T12:16:07.781Z,958.43
2017-01-01T12:17:07.761Z,958.38
2017-01-01T12:18:07.676Z,958.39
2017-01-01T12:19:08.221Z,958.34
2017-01-01T12:20:07.971Z,958.34
2017-01-01T12:21:07.792Z,958.31
2017-01-01T12:22:07.771Z,958.28
2017-01-01T12:23:08.019Z,958.28
2017-01-01T12:24:08.068Z,958.24
2017-01-01T12:25:07.972Z,958.25
2017-01-01T12:26:07.858Z,958.30
2017-01-01T12:27:07.942Z,958.24
2017-01-01T12:28:08.407Z,958.21
2017-01-01T12:29:08.185Z,958.25
2017-01-01T12:30:07.863Z,958.22
2017-01-01T12:31:07.715Z,958.20
2017-01-01T12:32:08.107Z,958.19
2017-01-01T12:33:08.315Z,958.14
2017-01-01T12:34:08.123Z,958.13